createdAt,value
2023-04-20T00:01:11.169Z,2.80
2023-04-20T00:03:42.938Z,3.00
2023-04-20T00:06:14.018Z,2.90
2023-04-20T00:08:44.881Z,3.10
2023-04-20T00:11:15.281Z,2.90
2023-04-20T00:13:45.753Z,2.80
2023-04-20T00:16:16.994Z,2.80
2023-04-20T00:18:49.194Z,2.60
2023-04-20T00:21:23.897Z,3.00
2023-04-20T00:23:54.569Z,2.80
2023-04-20T00:26:25.043Z,3.10
2023-04-20T00:28:55.923Z,2.90
2023-04-20T00:31:26.455Z,3.20
2023-04-20T00:33:56.981Z,3.50
2023-04-20T00:36:28.272Z,3.30
2023-04-20T00:38:59.078Z,2.90
2023-04-20T00:41:30.216Z,3.60
2023-04-20T00:44:00.830Z,3.00
2023-04-20T00:46:31.348Z,3.20
2023-04-20T00:49:02.733Z,3.60
2023-04-20T00:51:33.246Z,3.00
2023-04-20T00:54:03.940Z,3.40
2023-04-20T00:56:35.298Z,3.30
2023-04-20T00:59:06.536Z,3.50
2023-04-20T01:01:37.367Z,3.00
2023-04-20T01:04:08.519Z,3.50
2023-04-20T01:06:39.347Z,3.00
2023-04-20T01:09:10.794Z,2.70
2023-04-20T01:11:41.449Z,3.10
2023-04-20T01:14:11.898Z,3.50
2023-04-20T01:16:42.583Z,3.10
2023-04-20T01:19:13.024Z,3.60
2023-04-20T01:21:43.572Z,3.40
2023-04-20T01:24:14.092Z,3.40
2023-04-20T01:26:45.049Z,3.70
2023-04-20T01:29:15.926Z,4.10
2023-04-20T01:31:46.871Z,3.50
2023-04-20T01:34:17.661Z,4.00
2023-04-20T01:36:48.206Z,3.10
2023-04-20T01:39:20.449Z,3.20
2023-04-20T01:41:51.682Z,3.50
2023-04-20T01:44:22.144Z,3.80
2023-04-20T01:46:52.626Z,3.80
2023-04-20T01:49:23.149Z,3.70
2023-04-20T01:51:54.152Z,3.60
2023-04-20T01:54:24.658Z,3.40
2023-04-20T01:56:56.121Z,3.40
2023-04-20T01:59:26.690Z,3.50
2023-04-20T02:01:57.370Z,3.80
2023-04-20T02:04:28.185Z,3.70
2023-04-20T02:06:59.437Z,3.60
2023-04-20T02:09:30.007Z,3.60
2023-04-20T02:12:01.736Z,3.40
2023-04-20T02:14:32.117Z,3.60
2023-04-20T02:17:02.891Z,3.40
2023-04-20T02:19:33.405Z,2.90
2023-04-20T02:22:03.880Z,3.80
2023-04-20T02:24:34.354Z,3.50
2023-04-20T02:27:05.064Z,3.70
2023-04-20T02:29:35.803Z,4.00
2023-04-20T02:32:07.792Z,4.20
2023-04-20T02:34:38.492Z,3.90
2023-04-20T02:37:09.226Z,3.80
2023-04-20T02:39:39.651Z,3.10
2023-04-20T02:42:10.114Z,3.70
2023-04-20T02:44:40.645Z,3.40
2023-04-20T02:47:10.989Z,4.40
2023-04-20T02:49:41.498Z,4.30
2023-04-20T02:52:11.945Z,4.20
2023-04-20T02:54:42.533Z,3.60
2023-04-20T02:57:13.262Z,2.90
2023-04-20T02:59:44.186Z,3.80
2023-04-20T03:02:14.667Z,3.40
2023-04-20T03:04:45.239Z,3.70
2023-04-20T03:07:16.651Z,3.60
2023-04-20T03:09:47.502Z,3.70
2023-04-20T03:12:18.340Z,3.20
2023-04-20T03:14:49.178Z,3.70
2023-04-20T03:17:19.842Z,4.20
2023-04-20T03:19:50.221Z,4.00
2023-04-20T03:22:20.737Z,4.10
2023-04-20T03:24:53.501Z,4.00
2023-04-20T03:27:24.251Z,4.00
2023-04-20T03:29:54.677Z,4.10
2023-04-20T03:32:25.806Z,3.60
2023-04-20T03:34:56.729Z,3.80
2023-04-20T03:37:27.240Z,3.80
2023-04-20T03:39:57.970Z,3.70
2023-04-20T03:42:30.147Z,4.60
2023-04-20T03:45:01.151Z,4.00
2023-04-20T03:47:31.866Z,4.50
2023-04-20T03:50:02.637Z,4.50
2023-04-20T03:52:33.123Z,4.30
2023-04-20T03:55:04.528Z,4.00
2023-04-20T03:57:35.519Z,3.70
2023-04-20T04:00:07.297Z,4.20
2023-04-20T04:02:38.643Z,4.00
2023-04-20T04:05:10.443Z,3.80
2023-04-20T04:07:41.183Z,4.40
2023-04-20T04:10:13.093Z,4.60
2023-04-20T04:12:43.572Z,4.80
2023-04-20T04:15:15.055Z,3.60
2023-04-20T04:17:45.653Z,6.00
2023-04-20T04:20:16.724Z,5.60
2023-04-20T04:22:47.108Z,4.70
2023-04-20T04:25:18.590Z,4.40
2023-04-20T04:27:49.394Z,4.30
2023-04-20T04:30:20.784Z,4.40
2023-04-20T04:32:51.223Z,8.30
2023-04-20T04:35:21.961Z,5.20
2023-04-20T04:37:54.055Z,6.10
2023-04-20T04:40:24.927Z,4.00
2023-04-20T04:42:55.585Z,4.40
2023-04-20T04:45:26.290Z,5.00
2023-04-20T04:47:57.219Z,4.60
2023-04-20T04:50:27.900Z,4.50
2023-04-20T04:52:58.690Z,4.60
2023-04-20T04:55:29.221Z,4.30
2023-04-20T04:57:59.986Z,4.40
2023-04-20T05:00:31.384Z,8.20
2023-04-20T05:03:01.981Z,4.10
2023-04-20T05:05:32.648Z,4.70
2023-04-20T05:08:03.136Z,4.40
2023-04-20T05:10:33.648Z,4.40
2023-04-20T05:13:04.043Z,4.00
2023-04-20T05:15:35.122Z,4.40
2023-04-20T05:18:05.806Z,4.70
2023-04-20T05:20:36.572Z,4.90
2023-04-20T05:23:06.978Z,4.50
2023-04-20T05:25:37.927Z,5.00
2023-04-20T05:28:08.893Z,5.20
2023-04-20T05:30:39.298Z,4.60
2023-04-20T05:33:10.097Z,5.00
2023-04-20T05:35:41.053Z,4.40
2023-04-20T05:38:11.478Z,4.50
2023-04-20T05:40:42.066Z,4.50
2023-04-20T05:43:13.073Z,4.90
2023-04-20T05:45:44.077Z,5.10
2023-04-20T05:48:14.576Z,4.70
2023-04-20T05:50:45.318Z,5.40
2023-04-20T05:53:15.850Z,4.90
2023-04-20T05:55:46.402Z,4.70
2023-04-20T05:58:17.370Z,5.20
2023-04-20T06:00:47.973Z,4.70
2023-04-20T06:03:18.516Z,4.80
2023-04-20T06:05:49.753Z,5.50
2023-04-20T06:08:20.253Z,5.70
2023-04-20T06:10:54.100Z,5.60
2023-04-20T06:13:24.804Z,6.20
2023-04-20T06:15:55.701Z,5.50
2023-04-20T06:18:26.092Z,5.80
2023-04-20T06:20:56.781Z,5.10
2023-04-20T06:23:27.194Z,5.50
2023-04-20T06:25:58.064Z,5.10
2023-04-20T06:28:28.644Z,5.30
2023-04-20T06:30:59.317Z,5.10
2023-04-20T06:33:30.507Z,5.00
2023-04-20T06:36:01.175Z,5.30
2023-04-20T06:38:31.619Z,5.20
2023-04-20T06:41:02.916Z,4.20
2023-04-20T06:43:33.363Z,4.50
2023-04-20T06:46:03.779Z,4.80
2023-04-20T06:48:34.586Z,5.10
2023-04-20T06:51:05.383Z,4.70
2023-04-20T06:53:36.067Z,5.30
2023-04-20T06:56:07.137Z,4.80
2023-04-20T06:58:37.521Z,5.10
2023-04-20T07:01:08.220Z,5.20
2023-04-20T07:03:39.182Z,4.40
2023-04-20T07:06:11.230Z,5.00
2023-04-20T07:08:42.335Z,4.80
2023-04-20T07:11:12.678Z,5.00
2023-04-20T07:13:43.093Z,4.90
2023-04-20T07:16:14.296Z,5.50
2023-04-20T07:18:44.810Z,4.60
2023-04-20T07:21:16.119Z,4.60
2023-04-20T07:23:48.313Z,5.00
2023-04-20T07:26:19.017Z,4.60
2023-04-20T07:28:50.191Z,5.60
2023-04-20T07:31:20.918Z,6.00
2023-04-20T07:33:51.379Z,5.20
2023-04-20T07:36:22.615Z,5.50
2023-04-20T07:38:53.448Z,5.10
2023-04-20T07:41:24.038Z,5.10
2023-04-20T07:43:54.491Z,5.40
2023-04-20T07:46:26.543Z,4.90
2023-04-20T07:48:57.443Z,5.10
2023-04-20T07:51:30.290Z,4.70
2023-04-20T07:54:00.930Z,5.10
2023-04-20T07:56:32.132Z,5.40
2023-04-20T07:59:02.643Z,5.10
2023-04-20T08:01:33.332Z,4.90
2023-04-20T08:04:04.348Z,5.60
2023-04-20T08:06:34.985Z,4.90
2023-04-20T08:09:05.638Z,5.10
2023-04-20T08:11:36.516Z,5.30
2023-04-20T08:14:06.969Z,4.80
2023-04-20T08:16:37.483Z,4.40
2023-04-20T08:19:10.241Z,4.60
2023-04-20T08:21:41.276Z,3.90
2023-04-20T08:24:13.269Z,4.30
2023-04-20T08:26:45.678Z,3.90
2023-04-20T08:29:16.308Z,3.80
2023-04-20T08:31:47.608Z,4.00
2023-04-20T08:34:20.256Z,3.80
2023-04-20T08:36:51.305Z,3.80
2023-04-20T08:39:24.162Z,3.50
2023-04-20T08:41:56.667Z,3.60
2023-04-20T08:44:27.573Z,4.20
2023-04-20T08:46:58.447Z,4.00
2023-04-20T08:49:31.217Z,4.30
2023-04-20T08:52:02.045Z,3.90
2023-04-20T08:54:33.845Z,4.50
2023-04-20T08:57:05.900Z,4.30
2023-04-20T08:59:37.555Z,4.40
2023-04-20T09:02:15.183Z,4.30
2023-04-20T09:07:21.897Z,3.80
2023-04-20T09:09:59.070Z,4.30
2023-04-20T09:12:30.275Z,4.70
2023-04-20T09:15:00.994Z,4.90
2023-04-20T09:17:37.106Z,4.80
2023-04-20T09:20:09.260Z,4.50
2023-04-20T09:22:40.180Z,5.00
2023-04-20T09:25:18.987Z,4.50
2023-04-20T09:27:59.266Z,4.70
2023-04-20T09:30:40.331Z,5.20
2023-04-20T09:33:12.206Z,5.10
2023-04-20T09:35:43.879Z,4.30
2023-04-20T09:38:17.758Z,4.60
2023-04-20T09:40:48.623Z,4.40
2023-04-20T09:43:25.381Z,4.10
2023-04-20T09:45:56.694Z,3.90
2023-04-20T09:48:27.137Z,4.40
2023-04-20T09:50:58.610Z,4.30
2023-04-20T09:53:29.388Z,4.80
2023-04-20T09:56:02.198Z,5.30
2023-04-20T09:58:35.685Z,4.80
2023-04-20T10:01:10.022Z,4.60
2023-04-20T10:03:42.854Z,5.00
2023-04-20T10:06:23.330Z,4.90
2023-04-20T10:08:54.343Z,5.30
2023-04-20T10:11:40.458Z,5.40
2023-04-20T10:14:21.111Z,4.80
2023-04-20T10:17:02.052Z,5.10
2023-04-20T10:19:43.429Z,4.70
2023-04-20T10:22:26.056Z,4.40
2023-04-20T10:24:56.490Z,4.10
2023-04-20T10:27:27.361Z,4.70
2023-04-20T10:29:57.834Z,4.70
2023-04-20T10:32:29.834Z,4.20
2023-04-20T10:35:08.672Z,3.80
2023-04-20T10:37:51.076Z,4.50
2023-04-20T10:40:27.971Z,4.40
2023-04-20T10:42:58.498Z,4.30
2023-04-20T10:45:38.369Z,4.00
2023-04-20T10:48:14.486Z,5.30
2023-04-20T10:50:45.972Z,4.00
2023-04-20T10:53:23.781Z,4.00
2023-04-20T10:56:02.187Z,4.20
2023-04-20T10:58:32.698Z,4.60
2023-04-20T11:01:05.225Z,4.20
2023-04-20T11:03:36.084Z,4.50
2023-04-20T11:06:06.694Z,3.90
2023-04-20T11:08:44.186Z,4.90
2023-04-20T11:11:27.555Z,3.60
2023-04-20T11:14:09.467Z,4.40
2023-04-20T11:16:51.379Z,4.50
2023-04-20T11:19:27.975Z,3.90
2023-04-20T11:21:59.520Z,4.30
2023-04-20T11:24:32.765Z,4.10
2023-04-20T11:27:05.170Z,3.90
2023-04-20T11:29:39.041Z,4.60
2023-04-20T11:32:11.147Z,4.20
2023-04-20T11:34:42.527Z,3.80
2023-04-20T11:37:14.096Z,3.80
2023-04-20T11:39:45.085Z,3.90
2023-04-20T11:42:15.634Z,4.20
2023-04-20T11:44:46.112Z,3.70
2023-04-20T11:47:16.549Z,4.20
2023-04-20T11:49:47.036Z,4.30
2023-04-20T11:52:17.747Z,3.90
2023-04-20T11:54:48.204Z,3.40
2023-04-20T11:57:18.913Z,3.80
2023-04-20T11:59:49.660Z,3.50
2023-04-20T12:02:20.241Z,3.80
2023-04-20T12:04:51.017Z,3.60
2023-04-20T12:07:23.110Z,4.50
2023-04-20T12:09:53.839Z,4.30
2023-04-20T12:12:24.237Z,4.70
2023-04-20T12:14:54.936Z,3.90
2023-04-20T12:17:25.476Z,3.90
2023-04-20T12:19:57.911Z,4.00
2023-04-20T12:22:28.549Z,4.60
2023-04-20T12:24:59.058Z,4.30
2023-04-20T12:27:29.717Z,4.30
2023-04-20T12:30:00.274Z,4.50
2023-04-20T12:32:30.731Z,4.50
2023-04-20T12:35:01.472Z,4.20
2023-04-20T12:37:32.204Z,3.70
2023-04-20T12:40:03.838Z,4.20
2023-04-20T12:42:34.348Z,6.00
2023-04-20T12:45:05.092Z,4.50
2023-04-20T12:47:35.647Z,4.20
2023-04-20T12:50:08.183Z,4.40
2023-04-20T12:52:39.648Z,4.20
2023-04-20T12:55:11.765Z,4.60
2023-04-20T12:57:42.312Z,4.20
2023-04-20T13:00:14.709Z,3.90
2023-04-20T13:02:45.647Z,4.40
2023-04-20T13:05:16.375Z,4.90
2023-04-20T13:07:46.928Z,4.30
2023-04-20T13:10:18.289Z,5.20
2023-04-20T13:12:48.846Z,4.80
2023-04-20T13:15:31.854Z,5.90
2023-04-20T13:18:09.801Z,4.60
2023-04-20T13:20:40.690Z,4.10
2023-04-20T13:23:11.187Z,5.40
2023-04-20T13:25:41.722Z,4.20
2023-04-20T13:28:14.535Z,4.50
2023-04-20T13:30:45.905Z,4.60
2023-04-20T13:33:16.534Z,4.30
2023-04-20T13:35:47.206Z,4.90
2023-04-20T13:38:17.903Z,5.00
2023-04-20T13:40:49.017Z,4.40
2023-04-20T13:43:22.469Z,4.30
2023-04-20T13:45:53.313Z,4.70
2023-04-20T13:48:23.920Z,4.00
2023-04-20T13:50:55.105Z,4.30
2023-04-20T13:53:29.240Z,4.30
2023-04-20T13:56:00.360Z,3.90
2023-04-20T13:58:31.197Z,4.30
2023-04-20T14:01:02.190Z,4.80
2023-04-20T14:03:32.733Z,4.70
2023-04-20T14:06:03.689Z,4.00
2023-04-20T14:08:34.277Z,4.50
2023-04-20T14:11:05.438Z,4.50
2023-04-20T14:13:36.008Z,5.00
2023-04-20T14:16:10.856Z,4.20
2023-04-20T14:18:42.089Z,7.00
2023-04-20T14:21:13.433Z,6.40
2023-04-20T14:23:44.233Z,4.70
2023-04-20T14:26:14.740Z,11.70
2023-04-20T14:28:45.835Z,9.50
2023-04-20T14:31:16.322Z,15.10
2023-04-20T14:33:47.220Z,7.00
2023-04-20T14:36:17.818Z,10.80
2023-04-20T14:38:48.429Z,6.30
2023-04-20T14:41:19.116Z,5.80
2023-04-20T14:43:49.825Z,4.90
2023-04-20T14:46:20.838Z,4.90
2023-04-20T14:48:52.174Z,4.80
2023-04-20T14:51:22.545Z,6.90
2023-04-20T14:53:53.058Z,5.80
2023-04-20T14:56:23.902Z,5.80
2023-04-20T14:58:55.773Z,8.00
2023-04-20T15:01:26.388Z,9.60
2023-04-20T15:03:57.176Z,9.80
2023-04-20T15:06:28.266Z,11.90
2023-04-20T15:08:59.189Z,9.30
2023-04-20T15:11:29.778Z,9.00
2023-04-20T15:14:00.427Z,10.00
2023-04-20T15:16:31.458Z,11.60
2023-04-20T15:19:02.169Z,9.50
2023-04-20T15:21:33.556Z,5.50
2023-04-20T15:24:04.353Z,5.20
2023-04-20T15:26:35.380Z,5.50
2023-04-20T15:29:06.344Z,5.40
2023-04-20T15:31:36.874Z,5.00
2023-04-20T15:34:07.585Z,5.00
2023-04-20T15:36:38.381Z,15.10
2023-04-20T15:39:08.847Z,7.00
2023-04-20T15:41:39.587Z,7.90
2023-04-20T15:44:10.280Z,7.00
2023-04-20T15:46:40.984Z,6.60
2023-04-20T15:49:11.556Z,5.50
2023-04-20T15:51:43.265Z,4.70
2023-04-20T15:54:15.150Z,5.30
2023-04-20T15:56:45.663Z,5.70
2023-04-20T15:59:16.649Z,5.70
2023-04-20T16:01:47.730Z,5.70
2023-04-20T16:04:18.708Z,5.70
2023-04-20T16:06:49.885Z,6.20
2023-04-20T16:09:21.751Z,6.80
2023-04-20T16:11:54.236Z,6.20
2023-04-20T16:14:24.797Z,6.70
2023-04-20T16:16:55.922Z,6.20
2023-04-20T16:19:26.523Z,6.80
2023-04-20T16:21:57.137Z,6.90
2023-04-20T16:24:27.720Z,6.30
2023-04-20T16:27:01.392Z,7.40
2023-04-20T16:29:31.848Z,8.20
2023-04-20T16:32:02.278Z,6.30
2023-04-20T16:34:32.750Z,6.80
2023-04-20T16:37:03.541Z,10.70
2023-04-20T16:39:33.961Z,7.10
2023-04-20T16:42:04.946Z,7.40
2023-04-20T16:44:35.800Z,7.00
2023-04-20T16:47:06.519Z,7.40
2023-04-20T16:49:37.188Z,6.90
2023-04-20T16:52:08.627Z,8.00
2023-04-20T16:54:41.595Z,6.60
2023-04-20T16:57:12.090Z,7.40
2023-04-20T16:59:44.644Z,6.70
2023-04-20T17:02:16.206Z,7.10
2023-04-20T17:04:46.711Z,7.10
2023-04-20T17:07:17.469Z,7.20
2023-04-20T17:09:48.075Z,7.90
2023-04-20T17:12:18.644Z,9.40
2023-04-20T17:14:49.425Z,7.10
2023-04-20T17:17:20.256Z,10.50
2023-04-20T17:19:51.134Z,9.00
2023-04-20T17:22:21.701Z,8.60
2023-04-20T17:24:52.503Z,7.80
2023-04-20T17:27:23.463Z,8.80
2023-04-20T17:29:55.804Z,11.40
2023-04-20T17:32:26.802Z,12.10
2023-04-20T17:34:57.384Z,8.30
2023-04-20T17:37:28.005Z,7.20
2023-04-20T17:39:58.418Z,9.00
2023-04-20T17:42:29.121Z,6.30
2023-04-20T17:44:59.554Z,10.00
2023-04-20T17:47:32.586Z,6.70
2023-04-20T17:50:04.547Z,7.00
2023-04-20T17:52:35.072Z,6.80
2023-04-20T17:55:06.146Z,7.70
2023-04-20T17:57:36.629Z,7.30
2023-04-20T18:00:11.468Z,9.20
2023-04-20T18:02:42.443Z,7.30
2023-04-20T18:05:13.372Z,6.90
2023-04-20T18:07:43.789Z,8.30
2023-04-20T18:10:15.673Z,7.00
2023-04-20T18:12:46.680Z,7.40
2023-04-20T18:15:17.417Z,7.50
2023-04-20T18:17:48.316Z,7.70
2023-04-20T18:20:19.462Z,7.10
2023-04-20T18:22:50.513Z,7.00
2023-04-20T18:25:21.203Z,6.40
2023-04-20T18:27:51.687Z,7.50
2023-04-20T18:30:22.274Z,7.30
2023-04-20T18:32:53.657Z,7.30
2023-04-20T18:35:24.248Z,7.20
2023-04-20T18:37:55.190Z,7.20
2023-04-20T18:40:26.085Z,8.10
2023-04-20T18:42:56.566Z,6.60
2023-04-20T18:45:27.331Z,6.70
2023-04-20T18:47:58.395Z,7.60
2023-04-20T18:50:28.911Z,9.90
2023-04-20T18:52:59.402Z,10.80
2023-04-20T18:55:30.272Z,8.80
2023-04-20T18:58:00.736Z,6.80
2023-04-20T19:00:31.351Z,6.50
2023-04-20T19:03:02.522Z,5.80
2023-04-20T19:05:33.834Z,5.80
2023-04-20T19:08:04.381Z,5.90
2023-04-20T19:10:34.902Z,6.40
2023-04-20T19:13:05.677Z,5.80
2023-04-20T19:15:36.312Z,5.90
2023-04-20T19:18:06.985Z,6.40
2023-04-20T19:20:37.823Z,5.70
2023-04-20T19:23:08.317Z,5.40
2023-04-20T19:25:38.845Z,5.90
2023-04-20T19:28:10.310Z,5.70
2023-04-20T19:30:41.030Z,6.10
2023-04-20T19:33:11.599Z,5.50
2023-04-20T19:35:43.547Z,6.30
2023-04-20T19:38:14.036Z,6.50
2023-04-20T19:40:44.408Z,6.80
2023-04-20T19:43:16.775Z,6.90
2023-04-20T19:45:47.318Z,6.70
2023-04-20T19:48:17.774Z,6.60
2023-04-20T19:50:48.195Z,6.40
2023-04-20T19:53:19.169Z,6.00
2023-04-20T19:55:49.727Z,6.20
2023-04-20T19:58:20.313Z,6.30
2023-04-20T20:00:50.924Z,5.60
2023-04-20T20:03:21.507Z,6.40
2023-04-20T20:05:52.178Z,6.30
2023-04-20T20:08:22.685Z,7.10
2023-04-20T20:10:53.549Z,7.00
2023-04-20T20:13:24.337Z,6.50
2023-04-20T20:15:54.953Z,6.30
2023-04-20T20:18:25.717Z,6.00
2023-04-20T20:20:56.604Z,7.10
2023-04-20T20:23:27.064Z,6.20
2023-04-20T20:25:57.558Z,6.40
2023-04-20T20:28:28.235Z,5.90
2023-04-20T20:30:59.024Z,6.40
2023-04-20T20:33:29.437Z,6.70
2023-04-20T20:36:01.304Z,5.60
2023-04-20T20:38:32.854Z,6.70
2023-04-20T20:41:04.034Z,7.00
2023-04-20T20:43:34.718Z,5.70
2023-04-20T20:46:05.250Z,5.70
2023-04-20T20:48:35.699Z,6.60
2023-04-20T20:51:06.222Z,5.20
2023-04-20T20:53:36.653Z,6.30
2023-04-20T20:56:07.891Z,6.40
2023-04-20T20:58:38.614Z,5.20
2023-04-20T21:01:09.385Z,5.70
2023-04-20T21:03:40.851Z,4.10
2023-04-20T21:06:11.502Z,6.00
2023-04-20T21:08:42.290Z,5.30
2023-04-20T21:11:12.704Z,5.60
2023-04-20T21:13:43.159Z,5.80
2023-04-20T21:16:14.291Z,6.30
2023-04-20T21:18:45.117Z,4.90
2023-04-20T21:21:16.535Z,6.70
2023-04-20T21:23:48.749Z,6.40
2023-04-20T21:26:19.839Z,5.90
2023-04-20T21:28:50.751Z,6.20
2023-04-20T21:31:21.597Z,6.00
2023-04-20T21:33:53.023Z,6.80
2023-04-20T21:36:24.216Z,6.20
2023-04-20T21:38:55.008Z,6.30
2023-04-20T21:41:26.548Z,7.50
2023-04-20T21:43:57.261Z,6.50
2023-04-20T21:46:28.110Z,7.70
2023-04-20T21:48:59.058Z,7.70
2023-04-20T21:51:29.933Z,7.00
2023-04-20T21:54:00.852Z,7.60
2023-04-20T21:56:32.246Z,7.40
2023-04-20T21:59:02.649Z,6.10
2023-04-20T22:01:33.253Z,6.60
2023-04-20T22:04:04.590Z,6.20
2023-04-20T22:06:35.857Z,7.30
2023-04-20T22:09:06.431Z,7.20
2023-04-20T22:11:37.577Z,7.80
2023-04-20T22:14:08.383Z,7.50
2023-04-20T22:16:39.194Z,7.70
2023-04-20T22:19:10.109Z,8.00
2023-04-20T22:21:40.590Z,8.60
2023-04-20T22:24:11.389Z,9.30
2023-04-20T22:26:42.169Z,9.30
2023-04-20T22:29:12.659Z,8.90
2023-04-20T22:31:43.020Z,9.00
2023-04-20T22:34:13.602Z,9.50
2023-04-20T22:36:44.277Z,10.00
2023-04-20T22:39:15.096Z,10.40
2023-04-20T22:41:45.579Z,9.90
2023-04-20T22:44:15.993Z,9.80
2023-04-20T22:46:47.011Z,11.30
2023-04-20T22:49:17.757Z,10.10
2023-04-20T22:51:48.499Z,9.50
2023-04-20T22:54:19.292Z,10.50
2023-04-20T22:56:49.897Z,10.60
2023-04-20T22:59:20.822Z,10.90
2023-04-20T23:01:51.483Z,9.90
2023-04-20T23:04:22.672Z,9.40
2023-04-20T23:06:53.297Z,9.00
2023-04-20T23:09:24.036Z,8.90
2023-04-20T23:11:54.848Z,9.00
2023-04-20T23:14:25.669Z,8.60
2023-04-20T23:16:56.072Z,7.90
2023-04-20T23:19:26.460Z,8.90
2023-04-20T23:21:56.881Z,8.60
2023-04-20T23:24:27.489Z,8.30
2023-04-20T23:26:58.350Z,8.40
2023-04-20T23:29:29.241Z,8.20
2023-04-20T23:32:00.702Z,7.30
2023-04-20T23:34:31.237Z,8.00
2023-04-20T23:37:01.790Z,7.60
2023-04-20T23:39:32.254Z,7.60
2023-04-20T23:42:03.004Z,7.60
2023-04-20T23:44:33.745Z,8.00
2023-04-20T23:47:04.278Z,8.50
2023-04-20T23:49:35.068Z,7.70
2023-04-20T23:52:05.805Z,7.80
2023-04-20T23:54:36.251Z,7.00
2023-04-20T23:57:06.849Z,6.80
2023-04-20T23:59:37.929Z,7.10
